Time;durP1;ratioP1;P1;durP2;ratioP2;P2;SDS_P1;SDS_P2;PMS_P1;PMS_P2;Temp;Humidity;BMP_temperature;BMP_pressure;BME280_temperature;BME280_humidity;BME280_pressure;Samples;Min_cycle;Max_cycle;Signal;HPM_P1;HPM_P2
2023/12/14 00:00:00;;;;;;;70.82;65.13;;;;;;;2.29;100.00;100033.41;5032858;28;20061;-79
2023/12/14 00:02:27;;;;;;;75.13;69.43;;;;;;;2.33;100.00;100031.28;5034706;28;20053;-78
2023/12/14 00:04:54;;;;;;;75.93;70.28;;;;;;;2.31;100.00;100029.81;5034834;28;20067;-73
2023/12/14 00:07:30;;;;;;;76.35;70.43;;;;;;;2.34;100.00;100019.00;5039596;28;20049;-79
2023/12/14 00:09:57;;;;;;;85.30;79.18;;;;;;;2.42;100.00;100029.41;5038233;28;20052;-79
2023/12/14 00:12:24;;;;;;;80.30;74.50;;;;;;;2.45;100.00;100022.06;5036008;28;20049;-77
2023/12/14 00:14:51;;;;;;;79.75;73.85;;;;;;;2.39;100.00;100035.00;5037323;28;20049;-77
2023/12/14 00:17:18;;;;;;;80.47;74.75;;;;;;;2.36;100.00;100024.84;5037553;28;20045;-78
2023/12/14 00:19:45;;;;;;;70.63;65.13;;;;;;;2.20;100.00;100029.16;5040123;28;20421;-78
2023/12/14 00:22:12;;;;;;;82.05;76.07;;;;;;;2.30;100.00;100031.63;5034546;28;20073;-79
2023/12/14 00:24:40;;;;;;;80.95;75.00;;;;;;;2.34;100.00;100030.28;5037354;28;20049;-78
2023/12/14 00:27:07;;;;;;;78.32;72.53;;;;;;;2.32;100.00;100016.53;5036769;28;20052;-79
2023/12/14 00:29:34;;;;;;;74.72;68.82;;;;;;;2.27;100.00;100022.28;5029966;28;20045;-79
2023/12/14 00:32:01;;;;;;;68.63;63.42;;;;;;;2.25;100.00;100015.56;5033252;28;20060;-79
2023/12/14 00:34:27;;;;;;;84.47;78.10;;;;;;;2.28;100.00;100016.06;5030267;28;20065;-79
2023/12/14 00:36:58;;;;;;;99.25;92.30;;;;;;;2.21;100.00;100011.63;5030194;28;20056;-78
2023/12/14 00:39:25;;;;;;;126.50;117.47;;;;;;;2.18;100.00;100019.84;5033580;28;20053;-78
2023/12/14 00:41:53;;;;;;;104.90;96.97;;;;;;;2.34;100.00;100013.75;5043330;28;20045;-79
2023/12/14 00:44:20;;;;;;;106.32;98.65;;;;;;;2.33;100.00;100012.09;5031799;28;20064;-79
2023/12/14 00:46:47;;;;;;;112.68;104.53;;;;;;;2.31;100.00;100009.66;5036437;28;20049;-79
2023/12/14 00:49:14;;;;;;;107.57;100.00;;;;;;;2.39;100.00;100016.66;5030109;28;20045;-79
2023/12/14 00:51:41;;;;;;;114.00;105.57;;;;;;;2.35;100.00;100025.84;5031623;28;20049;-79
2023/12/14 00:54:08;;;;;;;111.00;103.10;;;;;;;2.28;100.00;100015.25;5036128;28;20111;-79
2023/12/14 00:56:35;;;;;;;86.00;79.50;;;;;;;2.20;100.00;100012.63;5034677;28;20072;-78
2023/12/14 00:59:03;;;;;;;91.85;84.80;;;;;;;2.28;100.00;100015.25;5030034;28;20083;-79
2023/12/14 01:01:30;;;;;;;114.82;106.72;;;;;;;2.20;100.00;100013.44;5032814;28;20076;-79
2023/12/14 01:03:56;;;;;;;110.05;102.18;;;;;;;2.24;100.00;100011.31;5038592;28;20041;-73
2023/12/14 01:06:23;;;;;;;108.32;100.65;;;;;;;2.27;100.00;100019.66;5035751;28;20080;-73
2023/12/14 01:08:50;;;;;;;96.30;89.13;;;;;;;2.27;100.00;100021.47;5028789;28;20428;-73
2023/12/14 01:11:17;;;;;;;88.28;82.28;;;;;;;2.28;100.00;100010.00;5028207;28;20800;-73
2023/12/14 01:13:44;;;;;;;73.97;68.38;;;;;;;2.27;100.00;100009.19;5034215;28;20042;-72
2023/12/14 01:16:13;;;;;;;95.85;88.70;;;;;;;2.39;100.00;100001.78;5035964;28;20445;-73
2023/12/14 01:18:40;;;;;;;92.15;85.97;;;;;;;2.33;100.00;99996.38;5037943;28;20137;-73
2023/12/14 01:21:07;;;;;;;114.80;106.00;;;;;;;2.08;100.00;99999.06;5035314;28;20150;-72
2023/12/14 01:23:34;;;;;;;105.95;98.63;;;;;;;2.11;100.00;99987.44;5032078;28;20598;-73
2023/12/14 01:26:00;;;;;;;100.75;93.32;;;;;;;2.14;100.00;99993.16;5029275;28;20053;-73
2023/12/14 01:28:28;;;;;;;100.38;92.93;;;;;;;2.20;100.00;99999.53;5029709;28;20049;-74
2023/12/14 01:30:56;;;;;;;107.28;99.85;;;;;;;2.13;100.00;99982.88;5033967;28;20741;-79
2023/12/14 01:33:25;;;;;;;105.57;98.20;;;;;;;2.03;100.00;99990.91;5034436;28;20111;-79
2023/12/14 01:35:51;;;;;;;103.28;95.90;;;;;;;2.17;100.00;99984.16;5034487;28;20053;-78
2023/12/14 01:38:18;;;;;;;123.93;115.30;;;;;;;2.18;100.00;99973.50;5030222;28;20497;-73
2023/12/14 01:40:45;;;;;;;116.57;108.20;;;;;;;2.22;100.00;99976.59;5028953;28;20060;-77
2023/12/14 01:43:12;;;;;;;106.10;98.72;;;;;;;2.19;100.00;99984.81;5038583;28;20049;-73
2023/12/14 01:45:39;;;;;;;103.47;96.10;;;;;;;2.26;100.00;99976.09;5034417;28;20414;-78
2023/12/14 01:48:06;;;;;;;89.32;82.75;;;;;;;2.38;100.00;99971.28;5029581;28;20049;-73
2023/12/14 01:50:34;;;;;;;102.80;95.38;;;;;;;2.11;100.00;99967.31;5026641;28;20497;-78
2023/12/14 01:53:01;;;;;;;116.57;107.97;;;;;;;2.21;100.00;99978.41;5031616;28;20049;-79
2023/12/14 01:55:28;;;;;;;88.82;82.00;;;;;;;2.27;100.00;99974.31;5031529;28;20067;-79
2023/12/14 01:57:55;;;;;;;63.85;58.25;;;;;;;2.31;100.00;99980.81;5028719;28;20045;-79
2023/12/14 02:00:32;;;;;;;94.70;87.68;;;;;;;2.39;100.00;99986.03;5029679;28;20509;-79
2023/12/14 02:02:59;;;;;;;74.25;68.15;;;;;;;2.45;100.00;99980.13;5029595;28;20174;-78
2023/12/14 02:05:26;;;;;;;103.47;94.75;;;;;;;2.32;100.00;99984.25;5031238;28;20069;-79
2023/12/14 02:07:54;;;;;;;75.47;69.30;;;;;;;2.30;100.00;99987.06;5038426;28;20071;-78
2023/12/14 02:10:21;;;;;;;72.85;66.60;;;;;;;2.20;100.00;99981.19;5036424;28;20057;-79
2023/12/14 02:12:48;;;;;;;71.13;65.35;;;;;;;2.28;100.00;99979.38;5032260;28;20064;-78
2023/12/14 02:15:15;;;;;;;81.38;74.30;;;;;;;2.22;100.00;99972.19;5037151;28;20052;-79
2023/12/14 02:17:42;;;;;;;83.22;76.68;;;;;;;2.05;100.00;99978.44;5033104;28;20520;-77
2023/12/14 02:20:09;;;;;;;92.00;84.57;;;;;;;2.17;100.00;99974.47;5030628;28;20056;-71
2023/12/14 02:22:50;;;;;;;93.40;86.00;;;;;;;2.25;100.00;99963.97;5033824;28;20052;-71
2023/12/14 02:25:17;;;;;;;68.35;62.55;;;;;;;2.14;100.00;99956.47;5031113;28;20057;-71
2023/12/14 02:27:44;;;;;;;95.72;87.82;;;;;;;2.12;100.00;99958.47;5029755;28;20046;-71
2023/12/14 02:30:11;;;;;;;78.13;71.05;;;;;;;1.90;100.00;99960.00;5036949;28;20037;-71
2023/12/14 02:32:38;;;;;;;94.93;87.88;;;;;;;1.96;100.00;99958.50;5036159;28;20040;-71
2023/12/14 02:35:07;;;;;;;98.45;90.88;;;;;;;2.00;100.00;99960.63;5027963;28;20037;-71
2023/12/14 02:37:36;;;;;;;84.10;77.32;;;;;;;2.07;100.00;99966.00;5028429;28;20053;-71
2023/12/14 02:40:06;;;;;;;70.28;64.57;;;;;;;2.02;100.00;99958.66;5030618;28;20085;-71
2023/12/14 02:42:33;;;;;;;75.78;69.78;;;;;;;1.98;100.00;99951.31;5029104;28;20096;-77
2023/12/14 02:45:01;;;;;;;84.32;77.10;;;;;;;1.96;100.00;99959.31;5029331;28;20874;-72
2023/12/14 02:47:28;;;;;;;74.55;68.47;;;;;;;2.00;100.00;99959.81;5029078;28;20215;-73
2023/12/14 02:49:55;;;;;;;72.72;66.93;;;;;;;2.00;100.00;99960.63;5038756;28;20532;-78
2023/12/14 02:52:23;;;;;;;76.47;70.15;;;;;;;1.92;100.00;99962.47;5033792;28;20424;-78
2023/12/14 02:54:49;;;;;;;75.47;69.38;;;;;;;1.87;100.00;99956.91;5032833;28;20045;-78
2023/12/14 02:57:18;;;;;;;88.38;81.68;;;;;;;2.02;100.00;99961.25;5037711;28;20053;-78
2023/12/14 02:59:45;;;;;;;73.93;68.03;;;;;;;1.91;100.00;99966.06;5034061;28;20144;-77
2023/12/14 03:02:12;;;;;;;81.38;74.70;;;;;;;1.88;100.00;99969.03;5036857;28;20045;-77
2023/12/14 03:04:39;;;;;;;82.03;75.45;;;;;;;1.98;100.00;99967.84;5040030;28;20100;-77
2023/12/14 03:07:06;;;;;;;90.75;83.70;;;;;;;1.95;100.00;99959.50;5040952;28;20424;-77
2023/12/14 03:09:34;;;;;;;89.25;82.40;;;;;;;1.94;100.00;99966.56;5039667;28;20932;-77
2023/12/14 03:12:01;;;;;;;87.13;79.68;;;;;;;1.91;100.00;99961.66;5040857;28;20045;-76
2023/12/14 03:14:34;;;;;;;70.78;64.75;;;;;;;2.01;100.00;99969.31;5044369;28;20130;-77
2023/12/14 03:17:01;;;;;;;77.07;70.97;;;;;;;2.00;100.00;99968.50;5038476;28;20149;-77
2023/12/14 03:19:29;;;;;;;78.57;72.43;;;;;;;2.08;100.00;99972.06;5040191;28;20056;-77
2023/12/14 03:21:55;;;;;;;85.95;77.65;;;;;;;1.90;100.00;99970.47;5035767;28;20041;-76
2023/12/14 03:24:22;;;;;;;94.15;86.60;;;;;;;1.78;100.00;99977.03;5033001;28;20095;-77
2023/12/14 03:27:04;;;;;;;99.35;92.18;;;;;;;1.92;100.00;99973.75;5041963;28;20052;-77
2023/12/14 03:29:32;;;;;;;89.32;82.60;;;;;;;1.90;100.00;99975.72;5028798;28;20048;-77
2023/12/14 03:31:59;;;;;;;100.35;92.75;;;;;;;1.75;100.00;99977.38;5035516;28;20046;-76
2023/12/14 03:34:26;;;;;;;102.18;94.88;;;;;;;1.84;100.00;99969.34;5034156;28;20064;-78
2023/12/14 03:36:53;;;;;;;114.68;106.63;;;;;;;1.83;100.00;99970.31;5035418;28;20141;-79
2023/12/14 03:39:30;;;;;;;97.28;89.63;;;;;;;1.84;100.00;99965.91;5032951;28;20045;-76
2023/12/14 03:41:57;;;;;;;98.80;91.30;;;;;;;1.77;100.00;99960.53;5029349;28;20052;-77
2023/12/14 03:44:24;;;;;;;88.45;81.60;;;;;;;1.60;100.00;99956.28;5044480;28;20045;-76
2023/12/14 03:46:54;;;;;;;120.60;111.90;;;;;;;1.85;100.00;99959.69;5037877;28;20045;-71
2023/12/14 03:49:20;;;;;;;119.68;110.90;;;;;;;1.69;100.00;99954.47;5034075;28;20049;-76
2023/12/14 03:51:47;;;;;;;101.40;94.40;;;;;;;1.70;100.00;99954.31;5034825;28;20092;-77
2023/12/14 03:54:14;;;;;;;107.13;99.63;;;;;;;1.62;100.00;99949.09;5034749;28;20041;-79
2023/12/14 03:56:43;;;;;;;110.43;102.55;;;;;;;1.65;100.00;99961.03;5041767;28;20056;-73
2023/12/14 03:59:10;;;;;;;108.18;100.40;;;;;;;1.74;100.00;99960.84;5039860;28;20046;-71
2023/12/14 04:01:39;;;;;;;104.43;97.22;;;;;;;1.59;100.00;99960.72;5033715;28;20064;-77
2023/12/14 04:04:07;;;;;;;115.72;107.68;;;;;;;1.75;100.00;99959.88;5035814;28;20054;-77
2023/12/14 04:06:34;;;;;;;98.72;91.10;;;;;;;1.59;100.00;99950.25;5039164;28;20053;-77
2023/12/14 04:09:01;;;;;;;100.25;93.07;;;;;;;1.60;100.00;99956.28;5035980;28;20557;-77
2023/12/14 04:11:28;;;;;;;100.93;93.20;;;;;;;1.65;100.00;99937.47;5032981;28;20291;-77
2023/12/14 04:13:55;;;;;;;107.88;99.57;;;;;;;1.72;100.00;99952.34;5038115;28;20049;-76
2023/12/14 04:16:22;;;;;;;89.63;83.05;;;;;;;1.76;100.00;99942.38;5034940;28;20060;-77
2023/12/14 04:18:56;;;;;;;82.57;75.72;;;;;;;1.81;100.00;99942.66;5035303;28;20494;-78
2023/12/14 04:21:24;;;;;;;84.30;77.47;;;;;;;1.58;100.00;99940.78;5033269;28;20119;-77
2023/12/14 04:23:51;;;;;;;89.50;82.72;;;;;;;1.65;100.00;99937.47;5033043;28;20050;-76
2023/12/14 04:26:22;;;;;;;93.10;85.32;;;;;;;1.73;100.00;99940.09;5035917;28;20671;-77
2023/12/14 04:28:50;;;;;;;91.57;84.32;;;;;;;1.70;100.00;99946.47;5039192;28;20053;-76
2023/12/14 04:31:18;;;;;;;88.35;81.68;;;;;;;1.81;100.00;99959.19;5035739;28;20500;-71
2023/12/14 04:33:44;;;;;;;79.90;73.68;;;;;;;1.85;100.00;99946.59;5032884;28;20425;-71
2023/12/14 04:36:11;;;;;;;82.55;76.38;;;;;;;1.95;100.00;99952.47;5038637;28;20426;-77
2023/12/14 04:38:40;;;;;;;68.03;62.53;;;;;;;1.96;100.00;99948.84;5034929;28;20054;-77
2023/12/14 04:41:06;;;;;;;75.93;69.45;;;;;;;1.80;100.00;99936.63;5039434;28;20052;-78
2023/12/14 04:43:36;;;;;;;74.97;69.35;;;;;;;1.67;100.00;99938.16;5032090;28;20060;-77
2023/12/14 04:46:05;;;;;;;64.90;59.78;;;;;;;1.58;100.00;99932.09;5027304;28;20095;-77
2023/12/14 04:48:32;;;;;;;66.93;61.05;;;;;;;1.80;100.00;99944.47;5038904;28;20147;-77
2023/12/14 04:50:59;;;;;;;69.38;64.20;;;;;;;1.82;100.00;99934.66;5029881;28;20056;-78
2023/12/14 04:53:26;;;;;;;75.05;68.68;;;;;;;1.80;100.00;99933.19;5034323;28;20049;-78
2023/12/14 04:55:54;;;;;;;70.93;64.60;;;;;;;1.77;100.00;99925.66;4678481;28;9999846;-71
2023/12/14 04:58:22;;;;;;;73.38;67.88;;;;;;;1.82;100.00;99926.00;5025745;28;20064;-71
2023/12/14 05:00:48;;;;;;;84.88;78.47;;;;;;;1.73;100.00;99924.38;5023603;28;20051;-71
2023/12/14 05:03:15;;;;;;;74.03;68.45;;;;;;;1.58;100.00;99913.78;5034229;28;20062;-71
2023/12/14 05:05:42;;;;;;;65.38;60.22;;;;;;;3.72;100.00;99906.97;5026710;28;20060;-73
2023/12/14 05:08:09;;;;;;;61.63;56.80;;;;;;;1.64;100.00;99914.91;5026342;28;20045;-73
2023/12/14 05:10:36;;;;;;;68.95;63.72;;;;;;;1.68;100.00;99914.41;5034873;28;20513;-73
2023/12/14 05:13:04;;;;;;;72.45;66.93;;;;;;;1.75;100.00;99925.00;5029943;28;20076;-70
2023/12/14 05:15:31;;;;;;;80.28;74.35;;;;;;;1.76;100.00;99921.44;5034777;28;20064;-73
2023/12/14 05:18:01;;;;;;;90.22;82.60;;;;;;;1.86;100.00;99929.91;5031221;28;20053;-73
2023/12/14 05:20:28;;;;;;;84.15;77.60;;;;;;;1.73;100.00;99919.97;5032706;28;20049;-73
2023/12/14 05:22:56;;;;;;;87.75;80.95;;;;;;;1.66;100.00;99920.78;5030054;28;20060;-73
2023/12/14 05:25:23;;;;;;;88.97;82.40;;;;;;;1.74;100.00;99916.34;5026234;28;20077;-70
2023/12/14 05:27:50;;;;;;;70.32;64.78;;;;;;;1.59;100.00;99908.38;5028637;28;20557;-73
2023/12/14 05:30:18;;;;;;;78.43;72.20;;;;;;;1.76;100.00;99914.38;5028990;28;20079;-73
2023/12/14 05:32:46;;;;;;;72.43;66.65;;;;;;;1.62;100.00;99914.25;5032419;28;20041;-73
2023/12/14 05:35:14;;;;;;;71.85;66.55;;;;;;;1.65;100.00;99908.69;5031722;28;20049;-73
2023/12/14 05:37:41;;;;;;;69.65;64.55;;;;;;;1.67;100.00;99909.34;5033360;28;20427;-79
2023/12/14 05:40:10;;;;;;;59.95;55.50;;;;;;;1.70;100.00;99922.91;5029841;28;20049;-79
2023/12/14 05:42:38;;;;;;;71.15;66.30;;;;;;;1.70;100.00;99909.81;5030236;28;20048;-79
2023/12/14 05:45:06;;;;;;;88.63;82.00;;;;;;;1.66;100.00;99916.34;5027742;28;20142;-78
2023/12/14 05:47:35;;;;;;;69.82;64.53;;;;;;;1.77;100.00;99902.91;5030112;28;20080;-74
2023/12/14 05:50:02;;;;;;;66.28;60.78;;;;;;;1.64;100.00;99917.53;5025198;28;20048;-78
2023/12/14 05:52:29;;;;;;;68.00;62.67;;;;;;;1.66;100.00;99918.97;5026325;28;20053;-73
2023/12/14 05:54:56;;;;;;;71.95;66.05;;;;;;;1.65;100.00;99912.13;5028189;28;20056;-73
2023/12/14 05:57:24;;;;;;;62.78;57.53;;;;;;;1.84;100.00;99918.75;5028480;28;20057;-73
2023/12/14 05:59:52;;;;;;;64.53;59.33;;;;;;;1.86;100.00;99926.47;5038213;28;20183;-73
2023/12/14 06:02:19;;;;;;;72.68;66.75;;;;;;;1.67;100.00;99918.00;5028338;28;20049;-73
2023/12/14 06:04:47;;;;;;;77.53;72.03;;;;;;;1.75;100.00;99919.78;5029299;28;20051;-73
2023/12/14 06:07:16;;;;;;;73.10;67.55;;;;;;;1.80;100.00;99917.47;5021201;28;20432;-73
2023/12/14 06:09:43;;;;;;;71.70;65.97;;;;;;;1.74;100.00;99929.44;5039908;28;20053;-79
2023/12/14 06:12:16;;;;;;;78.13;71.95;;;;;;;2.01;100.00;99927.41;5032670;28;20523;-79
2023/12/14 06:14:44;;;;;;;77.25;70.72;;;;;;;1.82;100.00;99945.13;5029687;28;20433;-79
2023/12/14 06:17:11;;;;;;;76.80;70.40;;;;;;;1.98;100.00;99967.84;5032533;28;20049;-73
2023/12/14 06:19:38;;;;;;;88.93;82.13;;;;;;;3.71;100.00;100002.53;5027500;28;20509;-74
2023/12/14 06:22:07;;;;;;;87.65;80.57;;;;;;;3.39;100.00;99993.94;5023725;28;20049;-73
2023/12/14 06:24:41;;;;;;;90.80;83.72;;;;;;;4.17;100.00;100027.84;5029095;28;20041;-78
2023/12/14 06:27:08;;;;;;;90.70;83.50;;;;;;;2.68;100.00;100018.66;5030283;28;20053;-79
2023/12/14 06:29:35;;;;;;;86.53;80.13;;;;;;;2.91;100.00;100048.41;5028507;28;20045;-79
2023/12/14 06:32:02;;;;;;;97.22;90.03;;;;;;;2.60;100.00;100027.38;5029990;28;20049;-79
2023/12/14 06:34:32;;;;;;;100.47;93.13;;;;;;;2.76;100.00;100063.22;5029937;28;20433;-78
2023/12/14 06:36:59;;;;;;;82.03;75.65;;;;;;;2.70;100.00;100041.13;5031829;28;20049;-79
2023/12/14 06:39:28;;;;;;;88.97;82.13;;;;;;;2.84;100.00;100070.22;5039053;28;20050;-78
2023/12/14 06:41:55;;;;;;;98.05;90.25;;;;;;;2.79;100.00;100072.56;5029392;28;20055;-78
2023/12/14 06:44:22;;;;;;;82.57;76.10;;;;;;;2.85;100.00;100069.25;5028035;28;20047;-78
2023/12/14 06:46:49;;;;;;;76.80;70.03;;;;;;;2.97;100.00;100105.41;5026836;28;20041;-79
2023/12/14 06:49:16;;;;;;;87.32;80.28;;;;;;;3.18;100.00;100056.78;5031229;28;20064;-79
2023/12/14 06:51:44;;;;;;;83.40;76.97;;;;;;;3.25;100.00;100077.88;5023245;28;20045;-79
2023/12/14 06:54:11;;;;;;;88.50;81.50;;;;;;;3.17;100.00;100094.47;5031375;28;20505;-79
2023/12/14 06:56:40;;;;;;;82.22;75.72;;;;;;;3.15;100.00;100094.66;5028318;28;20041;-79
2023/12/14 06:59:06;;;;;;;82.13;75.60;;;;;;;3.26;100.00;100090.81;5035309;28;20057;-79
2023/12/14 07:01:33;;;;;;;90.03;82.68;;;;;;;3.31;100.00;100103.44;5030037;28;20053;-79
2023/12/14 07:04:00;;;;;;;90.72;83.18;;;;;;;3.33;100.00;100091.78;5027638;28;20563;-74
2023/12/14 07:06:29;;;;;;;79.28;72.22;;;;;;;3.48;100.00;100088.38;5027564;28;20053;-73
2023/12/14 07:08:56;;;;;;;74.30;67.85;;;;;;;3.39;100.00;100104.22;5029094;28;20068;-73
2023/12/14 07:11:23;;;;;;;78.55;71.72;;;;;;;3.51;100.00;100120.38;5028919;28;20060;-73
2023/12/14 07:13:51;;;;;;;85.63;78.40;;;;;;;3.57;100.00;100131.97;5036259;28;20064;-73
2023/12/14 07:16:18;;;;;;;82.93;75.93;;;;;;;3.51;100.00;100143.16;5025601;28;20064;-73
2023/12/14 07:18:46;;;;;;;83.07;76.68;;;;;;;3.67;100.00;100143.09;5039577;28;20055;-73
2023/12/14 07:21:14;;;;;;;78.85;72.22;;;;;;;3.71;100.00;100156.69;5027311;28;20072;-73
2023/12/14 07:23:41;;;;;;;87.03;80.03;;;;;;;3.75;100.00;100178.97;5029759;28;20050;-73
2023/12/14 07:26:08;;;;;;;80.35;73.85;;;;;;;4.02;100.00;100175.00;5034168;28;20085;-73
2023/12/14 07:28:35;;;;;;;83.38;76.57;;;;;;;4.17;100.00;100175.84;5027689;28;20053;-73
2023/12/14 07:31:03;;;;;;;85.40;78.55;;;;;;;4.13;100.00;100177.22;5027003;28;20046;-73
2023/12/14 07:33:30;;;;;;;87.82;80.53;;;;;;;4.10;100.00;100170.50;5028689;28;20053;-73
2023/12/14 07:35:57;;;;;;;85.80;78.60;;;;;;;4.01;100.00;100168.13;5023380;28;20072;-73
2023/12/14 07:38:24;;;;;;;86.20;78.72;;;;;;;3.91;100.00;100178.88;5028233;28;20066;-73
2023/12/14 07:40:53;;;;;;;88.65;81.45;;;;;;;3.77;100.00;100177.81;5028149;28;20564;-73
2023/12/14 07:43:20;;;;;;;83.22;76.50;;;;;;;4.01;100.00;100189.16;5030562;28;20483;-73
2023/12/14 07:45:48;;;;;;;84.10;77.40;;;;;;;4.15;100.00;100171.81;5039301;28;20794;-73
2023/12/14 07:48:16;;;;;;;90.47;83.03;;;;;;;4.10;100.00;100182.84;5037769;28;20064;-78
2023/12/14 07:50:45;;;;;;;95.57;88.18;;;;;;;3.94;100.00;100181.16;5027597;28;20057;-78
2023/12/14 07:53:12;;;;;;;85.75;78.68;;;;;;;4.25;100.00;100173.16;5031904;28;20123;-73
2023/12/14 07:55:45;;;;;;;84.78;77.57;;;;;;;4.24;100.00;100186.50;5026623;28;20505;-80
2023/12/14 07:58:14;;;;;;;94.78;87.43;;;;;;;4.32;100.00;100187.22;5030697;28;20042;-73
2023/12/14 08:00:40;;;;;;;97.60;90.03;;;;;;;4.36;100.00;100195.59;5031023;28;20053;-74
2023/12/14 08:03:07;;;;;;;93.07;85.57;;;;;;;4.50;100.00;100207.13;5030710;28;20053;-78
2023/12/14 08:05:35;;;;;;;90.47;83.10;;;;;;;4.60;100.00;100202.44;5035337;28;20520;-78
2023/12/14 08:08:02;;;;;;;100.95;93.05;;;;;;;4.71;100.00;100188.03;5033051;28;20044;-78
2023/12/14 08:10:29;;;;;;;98.13;90.32;;;;;;;4.80;100.00;100200.91;5029884;28;20049;-78
2023/12/14 08:12:59;;;;;;;93.90;86.30;;;;;;;4.94;100.00;100199.28;5032548;28;20428;-78
2023/12/14 08:15:25;;;;;;;96.13;88.15;;;;;;;5.07;100.00;100182.03;5033174;28;20049;-79
2023/12/14 08:17:52;;;;;;;104.90;95.72;;;;;;;5.15;100.00;100182.75;5031128;28;20041;-78
2023/12/14 08:20:19;;;;;;;114.93;105.65;;;;;;;5.32;100.00;100172.00;5031042;28;21111;-78
2023/12/14 08:22:47;;;;;;;107.25;98.55;;;;;;;5.44;100.00;100183.69;5033941;28;20056;-78
2023/12/14 08:25:16;;;;;;;105.68;97.13;;;;;;;5.49;100.00;100171.59;5028011;28;20057;-78
2023/12/14 08:27:43;;;;;;;108.35;99.55;;;;;;;5.66;100.00;100159.03;5029661;28;20049;-79
2023/12/14 08:30:12;;;;;;;123.05;113.50;;;;;;;6.09;100.00;100164.31;5029209;28;20057;-79
2023/12/14 08:32:39;;;;;;;113.20;104.25;;;;;;;6.13;100.00;100167.41;5027236;28;20052;-79
2023/12/14 08:35:06;;;;;;;114.68;105.70;;;;;;;6.45;100.00;100170.50;5027218;28;20049;-79
2023/12/14 08:37:33;;;;;;;118.05;108.78;;;;;;;6.30;100.00;100184.59;5032736;28;20347;-79
2023/12/14 08:40:01;;;;;;;115.45;105.68;;;;;;;6.27;100.00;100205.25;5025035;28;20052;-79
2023/12/14 08:42:28;;;;;;;113.00;104.10;;;;;;;6.38;100.00;100233.72;5025162;28;20247;-79
2023/12/14 08:44:55;;;;;;;123.93;114.22;;;;;;;6.63;100.00;100242.88;5027759;28;20065;-79
2023/12/14 08:47:35;;;;;;;126.63;116.97;;;;;;;6.50;100.00;100245.41;5031401;28;20046;-78
2023/12/14 08:50:02;;;;;;;107.90;100.18;;;;;;;5.88;100.00;100240.75;5027994;28;20482;-79
2023/12/14 08:52:29;;;;;;;101.15;93.97;;;;;;;5.92;100.00;100248.09;5024146;28;20489;-79
2023/12/14 08:54:56;;;;;;;97.28;90.38;;;;;;;5.50;100.00;100265.44;5028310;28;20051;-78
2023/12/14 08:57:24;;;;;;;92.30;85.78;;;;;;;5.65;100.00;100264.59;5032514;28;20057;-79
2023/12/14 08:59:51;;;;;;;98.65;91.85;;;;;;;5.51;100.00;100275.00;5030741;28;20105;-78
2023/12/14 09:02:18;;;;;;;96.50;89.88;;;;;;;5.93;100.00;100283.19;5030627;28;20045;-79
2023/12/14 09:04:45;;;;;;;82.07;76.03;;;;;;;4.77;100.00;100292.53;5027739;28;20049;-79
2023/12/14 09:07:11;;;;;;;85.25;79.28;;;;;;;4.76;100.00;100298.81;5031742;28;20076;-78
2023/12/14 09:09:38;;;;;;;89.63;83.13;;;;;;;4.74;100.00;100290.28;5032645;28;20053;-73
2023/12/14 09:12:06;;;;;;;105.13;97.32;;;;;;;5.14;100.00;100301.41;5026920;28;20045;-77
2023/12/14 09:14:34;;;;;;;90.05;83.35;;;;;;;4.49;100.00;100289.66;5024431;28;20428;-73
2023/12/14 09:17:01;;;;;;;96.03;88.80;;;;;;;4.70;100.00;100295.06;5028323;28;20084;-74
2023/12/14 09:19:30;;;;;;;100.50;93.28;;;;;;;4.20;100.00;100287.72;5026542;28;21458;-73
2023/12/14 09:22:25;;;;;;;99.47;91.93;;;;;;;4.22;100.00;100291.00;5025931;28;20049;-79
2023/12/14 09:24:52;;;;;;;94.70;87.60;;;;;;;4.33;100.00;100282.72;4991802;28;20057;-79
2023/12/14 09:27:19;;;;;;;94.10;87.00;;;;;;;3.79;100.00;100280.91;5031107;28;20049;-78
2023/12/14 09:29:54;;;;;;;97.05;89.82;;;;;;;4.12;100.00;100278.09;5028935;28;20049;-73
2023/12/14 09:32:21;;;;;;;90.53;83.47;;;;;;;4.05;100.00;100285.84;5028256;28;20056;-73
2023/12/14 09:34:48;;;;;;;92.72;85.55;;;;;;;4.31;100.00;100282.06;5029514;28;20079;-78
2023/12/14 09:37:14;;;;;;;93.43;86.40;;;;;;;4.48;100.00;100272.22;5026363;28;20771;-79
2023/12/14 09:39:41;;;;;;;98.18;90.88;;;;;;;4.15;100.00;100287.47;5030378;28;20057;-78
2023/12/14 09:42:08;;;;;;;94.50;87.30;;;;;;;3.95;100.00;100285.25;5020853;28;20046;-78
2023/12/14 09:44:36;;;;;;;101.82;94.32;;;;;;;4.39;100.00;100289.06;5031802;28;20037;-73
2023/12/14 09:47:05;;;;;;;98.35;91.05;;;;;;;4.36;100.00;100298.16;5028779;28;20045;-73
2023/12/14 09:49:33;;;;;;;93.70;86.50;;;;;;;4.69;100.00;100303.97;5024263;28;20051;-73
2023/12/14 09:52:00;;;;;;;98.15;90.70;;;;;;;4.62;100.00;100302.22;5023778;28;20053;-73
2023/12/14 09:54:28;;;;;;;106.07;97.85;;;;;;;4.83;100.00;100292.66;5032501;28;20087;-73
2023/12/14 09:56:55;;;;;;;98.55;90.82;;;;;;;4.70;100.00;100313.50;5035299;28;20043;-73
2023/12/14 09:59:22;;;;;;;97.72;89.88;;;;;;;4.49;100.00;100315.97;5034381;28;20061;-73
2023/12/14 10:01:49;;;;;;;93.28;85.63;;;;;;;4.71;100.00;100320.38;5031738;28;20045;-73
2023/12/14 10:04:19;;;;;;;97.65;89.88;;;;;;;5.06;100.00;100328.66;5023252;28;20049;-73
2023/12/14 10:06:48;;;;;;;103.70;95.68;;;;;;;4.51;100.00;100341.09;5028472;28;20045;-73
2023/12/14 10:09:18;;;;;;;98.60;90.55;;;;;;;4.53;100.00;100322.50;5032686;28;20045;-77
2023/12/14 10:11:48;;;;;;;101.93;93.93;;;;;;;4.68;100.00;100309.41;5030156;28;20144;-78
2023/12/14 10:14:20;;;;;;;102.65;94.57;;;;;;;4.67;100.00;100305.97;5034847;28;20041;-78
2023/12/14 10:16:53;;;;;;;101.82;93.72;;;;;;;4.86;100.00;100316.97;5033308;28;20111;-79
2023/12/14 10:19:22;;;;;;;101.10;93.20;;;;;;;4.84;100.00;100317.13;5033085;28;20440;-79
2023/12/14 10:21:50;;;;;;;105.60;97.32;;;;;;;5.04;100.00;100320.91;5027755;28;20072;-79
2023/12/14 10:24:19;;;;;;;109.43;100.65;;;;;;;4.95;100.00;100313.28;5030588;28;20045;-78
2023/12/14 10:26:53;;;;;;;116.10;106.57;;;;;;;5.00;100.00;100314.38;5029011;28;20046;-78
2023/12/14 10:29:28;;;;;;;129.82;119.85;;;;;;;5.11;100.00;100317.56;5029622;28;20053;-78
2023/12/14 10:31:55;;;;;;;122.55;113.07;;;;;;;4.95;100.00;100321.97;5028228;28;20060;-78
2023/12/14 10:34:25;;;;;;;110.38;101.97;;;;;;;5.13;100.00;100297.97;5030297;28;20128;-79
2023/12/14 10:36:52;;;;;;;102.47;94.18;;;;;;;5.32;100.00;100306.31;5027740;28;20054;-78
2023/12/14 10:39:21;;;;;;;104.97;96.55;;;;;;;5.24;100.00;100309.88;5030805;28;20497;-73
2023/12/14 10:41:48;;;;;;;106.50;98.30;;;;;;;5.45;100.00;100302.06;5027116;28;20133;-78
2023/12/14 10:44:15;;;;;;;111.90;103.15;;;;;;;5.56;100.00;100294.69;5025682;28;20050;-73
2023/12/14 10:46:44;;;;;;;111.55;102.45;;;;;;;5.75;100.00;100304.69;5032503;28;20057;-73
2023/12/14 10:49:12;;;;;;;114.85;105.63;;;;;;;5.86;100.00;100306.00;5027548;28;20084;-73
2023/12/14 10:51:42;;;;;;;112.45;103.90;;;;;;;5.88;100.00;100311.91;5024204;28;20489;-73
2023/12/14 10:54:10;;;;;;;107.47;99.28;;;;;;;6.10;100.00;100312.78;5031649;28;20060;-73
2023/12/14 10:56:39;;;;;;;110.00;100.80;;;;;;;6.55;100.00;100327.44;5037384;28;20429;-78
2023/12/14 10:59:07;;;;;;;117.68;108.80;;;;;;;7.02;100.00;100330.47;5030514;28;20053;-78
2023/12/14 11:01:38;;;;;;;102.10;94.10;;;;;;;7.19;100.00;100329.19;5028580;28;20053;-73
2023/12/14 11:04:12;;;;;;;93.22;86.13;;;;;;;7.02;100.00;100330.47;5029194;28;20123;-73
2023/12/14 11:06:46;;;;;;;94.45;86.93;;;;;;;7.55;100.00;100315.78;5031752;28;20045;-78
2023/12/14 11:09:15;;;;;;;96.60;89.38;;;;;;;7.47;100.00;100328.34;5029044;28;20119;-73
2023/12/14 11:11:44;;;;;;;89.80;82.90;;;;;;;7.67;100.00;100334.53;5028496;28;20783;-79